Hovedside
METAR-TAF:

METAR-TAF

Lufthavner :

Diori Hamani internasjonale lufthavn

Niamey, Niger

breddegrad: 13-29N, lengdegrad: 002-10E, høyde over havet: 223 m

Gjeldene værobservasjon

Denne rapporten ble laget for 37 minutter siden, klokken 06:00 UTC
Vind 4 kt fra Nord-nordøst
Temperatur 18°C
Luftfuktighet 32%
Trykk 1016 hPa
Sikt: 8000 m

METAR: DRRN 120600Z 03004KT 8000 NSC 18/01 Q1016 NOSIG

Tid: 07:37 (06:37 UTC)

Varsel

Denne rapporten ble laget for 1 time og 37 minutter siden, klokken 05:00 UTC
Varsel gyldig fra 12. klokken 06 UTC til 13. klokken 12 UTC
Vind 10 kt fra Øst
Sikt 10 km eller mer
ingen skyer under 1500 m og ingen bygeskyer
Midlertidig
fra 12. klokken 06 UTC til 12. klokken 09 UTC
Sikt: 4000 m
mye støv
Midlertidig
fra 12. klokken 17 UTC til 12. klokken 20 UTC
Sikt: 4000 m
mye støv
Midlertidig
fra 13. klokken 06 UTC til 13. klokken 09 UTC
Sikt: 4000 m
mye støv

TAF: DRRN 120500Z 1206/1312 08010KT CAVOK TEMPO 1206/1209 4000 DU TEMPO 1217/1220 4000 DU TEMPO 1306/1309 4000 DU

Værobservasjoner og værvarsel for over 4000 flyplasser (METAR- og TAF-rapporter).

Tilgjengelige stasjoner er representert av de røde og gule prikkene på kartet.

Hold musepekeren over prikken for å se navnet på stasjonen.

Klikk så for å se værobservasjoner og -varsler.

For å forandre kartet kan du klikke på den grønne knappen med svart kryss for å zoome inn, på den grønne knappen med strek for å zoome ut, eller på de grønne pilene for å se tilstøtende kart.


METAR-TAF: